sensor_id;sensor_type;location;lat;lon;timestamp;pressure;altitude;pressure_sealevel;temperature;humidity
36248;BME280;22287;50.824;5.644;2023-01-26T00:01:12;101769.56;;;1.14;71.35
36248;BME280;22287;50.824;5.644;2023-01-26T00:03:43;101770.44;;;1.15;71.55
36248;BME280;22287;50.824;5.644;2023-01-26T00:06:12;101759.47;;;0.96;72.19
36248;BME280;22287;50.824;5.644;2023-01-26T00:08:42;101753.84;;;1.05;72.47
36248;BME280;22287;50.824;5.644;2023-01-26T00:11:11;101751.06;;;1.10;71.94
36248;BME280;22287;50.824;5.644;2023-01-26T00:13:38;101750.03;;;0.85;72.27
36248;BME280;22287;50.824;5.644;2023-01-26T00:16:08;101748.88;;;1.24;71.45
36248;BME280;22287;50.824;5.644;2023-01-26T00:18:37;101758.41;;;0.71;72.86
36248;BME280;22287;50.824;5.644;2023-01-26T00:21:05;101751.56;;;0.63;73.69
36248;BME280;22287;50.824;5.644;2023-01-26T00:23:33;101744.66;;;0.86;72.81
36248;BME280;22287;50.824;5.644;2023-01-26T00:26:00;101746.44;;;0.86;72.91
36248;BME280;22287;50.824;5.644;2023-01-26T00:28:27;101743.00;;;1.13;71.91
36248;BME280;22287;50.824;5.644;2023-01-26T00:31:05;101745.84;;;1.07;72.07
36248;BME280;22287;50.824;5.644;2023-01-26T00:33:32;101746.81;;;1.04;72.59
36248;BME280;22287;50.824;5.644;2023-01-26T00:35:59;101743.19;;;1.05;72.16
36248;BME280;22287;50.824;5.644;2023-01-26T00:38:26;101744.63;;;1.46;71.31
36248;BME280;22287;50.824;5.644;2023-01-26T00:40:54;101744.88;;;1.09;71.50
36248;BME280;22287;50.824;5.644;2023-01-26T00:43:21;101741.19;;;1.13;72.41
36248;BME280;22287;50.824;5.644;2023-01-26T00:45:50;101733.34;;;1.09;72.71
36248;BME280;22287;50.824;5.644;2023-01-26T00:48:18;101734.94;;;1.14;72.34
36248;BME280;22287;50.824;5.644;2023-01-26T00:50:45;101734.88;;;1.16;72.21
36248;BME280;22287;50.824;5.644;2023-01-26T00:53:11;101734.31;;;1.06;72.54
36248;BME280;22287;50.824;5.644;2023-01-26T00:55:38;101725.41;;;1.07;72.96
36248;BME280;22287;50.824;5.644;2023-01-26T00:58:06;101723.84;;;1.00;72.49
36248;BME280;22287;50.824;5.644;2023-01-26T01:00:36;101719.22;;;1.07;72.65
36248;BME280;22287;50.824;5.644;2023-01-26T01:03:04;101719.66;;;0.92;73.39
36248;BME280;22287;50.824;5.644;2023-01-26T01:05:32;101713.84;;;1.08;72.60
36248;BME280;22287;50.824;5.644;2023-01-26T01:07:59;101702.94;;;0.88;73.62
36248;BME280;22287;50.824;5.644;2023-01-26T01:10:27;101694.66;;;1.27;72.97
36248;BME280;22287;50.824;5.644;2023-01-26T01:12:54;101689.50;;;1.21;72.56
36248;BME280;22287;50.824;5.644;2023-01-26T01:15:23;101692.16;;;0.91;73.21
36248;BME280;22287;50.824;5.644;2023-01-26T01:17:50;101694.28;;;1.09;73.22
36248;BME280;22287;50.824;5.644;2023-01-26T01:20:16;101690.56;;;1.15;73.24
36248;BME280;22287;50.824;5.644;2023-01-26T01:22:45;101689.41;;;1.24;73.36
36248;BME280;22287;50.824;5.644;2023-01-26T01:25:12;101689.31;;;1.27;73.01
36248;BME280;22287;50.824;5.644;2023-01-26T01:27:39;101673.97;;;1.35;73.49
36248;BME280;22287;50.824;5.644;2023-01-26T01:30:06;101671.41;;;1.32;72.88
36248;BME280;22287;50.824;5.644;2023-01-26T01:32:35;101682.06;;;1.58;72.50
36248;BME280;22287;50.824;5.644;2023-01-26T01:35:07;101686.59;;;1.28;73.36
36248;BME280;22287;50.824;5.644;2023-01-26T01:37:48;101673.25;;;1.30;72.82
36248;BME280;22287;50.824;5.644;2023-01-26T01:40:28;101669.63;;;1.03;74.05
36248;BME280;22287;50.824;5.644;2023-01-26T01:42:55;101671.94;;;1.43;73.01
36248;BME280;22287;50.824;5.644;2023-01-26T01:47:54;101673.91;;;1.36;72.84
36248;BME280;22287;50.824;5.644;2023-01-26T01:50:23;101667.31;;;1.48;72.05
36248;BME280;22287;50.824;5.644;2023-01-26T01:52:53;101669.97;;;1.74;70.92
36248;BME280;22287;50.824;5.644;2023-01-26T01:55:20;101657.94;;;1.36;71.84
36248;BME280;22287;50.824;5.644;2023-01-26T01:57:52;101662.16;;;1.43;71.48
36248;BME280;22287;50.824;5.644;2023-01-26T02:00:22;101654.50;;;1.59;71.34
36248;BME280;22287;50.824;5.644;2023-01-26T02:03:13;101659.38;;;0.91;73.33
36248;BME280;22287;50.824;5.644;2023-01-26T02:06:05;101646.91;;;1.21;73.78
36248;BME280;22287;50.824;5.644;2023-01-26T02:08:39;101647.47;;;1.30;73.56
36248;BME280;22287;50.824;5.644;2023-01-26T02:11:12;101638.94;;;1.73;71.04
36248;BME280;22287;50.824;5.644;2023-01-26T02:13:45;101646.28;;;1.12;73.44
36248;BME280;22287;50.824;5.644;2023-01-26T02:16:15;101638.38;;;1.09;74.04
36248;BME280;22287;50.824;5.644;2023-01-26T02:18:43;101646.78;;;1.51;72.78
36248;BME280;22287;50.824;5.644;2023-01-26T02:21:16;101643.25;;;1.51;72.70
36248;BME280;22287;50.824;5.644;2023-01-26T02:26:34;101642.41;;;1.75;72.10
36248;BME280;22287;50.824;5.644;2023-01-26T02:29:03;101639.81;;;1.73;72.40
36248;BME280;22287;50.824;5.644;2023-01-26T02:31:34;101627.78;;;1.62;71.74
36248;BME280;22287;50.824;5.644;2023-01-26T02:34:01;101627.69;;;1.65;71.27
36248;BME280;22287;50.824;5.644;2023-01-26T02:36:30;101632.19;;;1.37;72.79
36248;BME280;22287;50.824;5.644;2023-01-26T02:39:22;101631.81;;;1.73;71.01
36248;BME280;22287;50.824;5.644;2023-01-26T02:42:04;101629.81;;;1.54;71.44
36248;BME280;22287;50.824;5.644;2023-01-26T02:44:49;101625.16;;;1.60;72.01
36248;BME280;22287;50.824;5.644;2023-01-26T02:47:18;101623.34;;;1.61;71.27
36248;BME280;22287;50.824;5.644;2023-01-26T02:49:58;101627.53;;;1.43;71.95
36248;BME280;22287;50.824;5.644;2023-01-26T02:52:28;101615.59;;;1.27;72.89
36248;BME280;22287;50.824;5.644;2023-01-26T02:55:05;101620.25;;;1.48;72.78
36248;BME280;22287;50.824;5.644;2023-01-26T02:57:53;101616.81;;;1.71;71.96
36248;BME280;22287;50.824;5.644;2023-01-26T03:00:32;101621.47;;;1.64;71.15
36248;BME280;22287;50.824;5.644;2023-01-26T03:03:25;101623.81;;;1.47;71.88
36248;BME280;22287;50.824;5.644;2023-01-26T03:06:11;101615.25;;;1.64;71.53
36248;BME280;22287;50.824;5.644;2023-01-26T03:08:38;101615.72;;;1.50;71.72
36248;BME280;22287;50.824;5.644;2023-01-26T03:11:07;101619.50;;;1.69;71.51
36248;BME280;22287;50.824;5.644;2023-01-26T03:13:34;101621.06;;;1.76;71.38
36248;BME280;22287;50.824;5.644;2023-01-26T03:16:05;101625.47;;;1.51;72.18
36248;BME280;22287;50.824;5.644;2023-01-26T03:18:34;101621.31;;;1.43;72.86
36248;BME280;22287;50.824;5.644;2023-01-26T03:21:21;101625.00;;;1.39;72.60
36248;BME280;22287;50.824;5.644;2023-01-26T03:24:15;101612.81;;;1.58;72.46
36248;BME280;22287;50.824;5.644;2023-01-26T03:27:15;101608.03;;;1.67;72.46
36248;BME280;22287;50.824;5.644;2023-01-26T03:29:59;101609.81;;;1.68;71.98
36248;BME280;22287;50.824;5.644;2023-01-26T03:32:26;101605.72;;;1.83;71.52
36248;BME280;22287;50.824;5.644;2023-01-26T03:34:53;101598.53;;;1.85;71.81
36248;BME280;22287;50.824;5.644;2023-01-26T03:37:20;101601.66;;;1.71;71.68
36248;BME280;22287;50.824;5.644;2023-01-26T03:40:05;101605.72;;;1.83;72.32
36248;BME280;22287;50.824;5.644;2023-01-26T03:42:51;101609.19;;;1.34;73.51
36248;BME280;22287;50.824;5.644;2023-01-26T03:45:36;101603.59;;;1.42;74.08
36248;BME280;22287;50.824;5.644;2023-01-26T03:48:24;101607.13;;;1.42;73.38
36248;BME280;22287;50.824;5.644;2023-01-26T03:51:09;101595.00;;;1.60;73.53
36248;BME280;22287;50.824;5.644;2023-01-26T03:53:55;101600.66;;;1.49;73.65
36248;BME280;22287;50.824;5.644;2023-01-26T03:56:40;101605.38;;;1.41;74.05
36248;BME280;22287;50.824;5.644;2023-01-26T03:59:12;101600.69;;;1.74;72.84
36248;BME280;22287;50.824;5.644;2023-01-26T04:01:44;101594.06;;;1.61;73.55
36248;BME280;22287;50.824;5.644;2023-01-26T04:04:31;101602.88;;;1.10;74.82
36248;BME280;22287;50.824;5.644;2023-01-26T04:07:18;101602.97;;;1.34;74.49
36248;BME280;22287;50.824;5.644;2023-01-26T04:10:03;101599.63;;;1.27;74.65
36248;BME280;22287;50.824;5.644;2023-01-26T04:12:30;101593.22;;;1.33;75.28
36248;BME280;22287;50.824;5.644;2023-01-26T04:15:09;101592.53;;;1.54;74.03
36248;BME280;22287;50.824;5.644;2023-01-26T04:17:55;101599.56;;;1.81;72.87
36248;BME280;22287;50.824;5.644;2023-01-26T04:20:40;101606.16;;;1.71;73.67
36248;BME280;22287;50.824;5.644;2023-01-26T04:23:25;101599.50;;;1.83;72.76
36248;BME280;22287;50.824;5.644;2023-01-26T04:25:52;101606.78;;;1.77;73.28
36248;BME280;22287;50.824;5.644;2023-01-26T04:28:19;101592.66;;;1.75;72.44
36248;BME280;22287;50.824;5.644;2023-01-26T04:30:46;101601.22;;;1.59;73.15
36248;BME280;22287;50.824;5.644;2023-01-26T04:33:13;101610.41;;;1.50;73.54
36248;BME280;22287;50.824;5.644;2023-01-26T04:35:39;101605.84;;;1.54;73.92
36248;BME280;22287;50.824;5.644;2023-01-26T04:38:06;101600.56;;;1.52;73.55
36248;BME280;22287;50.824;5.644;2023-01-26T04:40:33;101600.22;;;1.63;73.02
36248;BME280;22287;50.824;5.644;2023-01-26T04:43:01;101594.31;;;1.53;73.81
36248;BME280;22287;50.824;5.644;2023-01-26T04:45:42;101599.59;;;1.29;74.92
36248;BME280;22287;50.824;5.644;2023-01-26T04:48:24;101592.41;;;1.32;75.24
36248;BME280;22287;50.824;5.644;2023-01-26T04:51:16;101591.50;;;1.32;75.94
36248;BME280;22287;50.824;5.644;2023-01-26T04:53:44;101590.69;;;1.56;74.79
36248;BME280;22287;50.824;5.644;2023-01-26T04:56:24;101586.81;;;1.40;75.88
36248;BME280;22287;50.824;5.644;2023-01-26T04:58:52;101586.91;;;1.37;75.00
36248;BME280;22287;50.824;5.644;2023-01-26T05:01:20;101586.53;;;1.47;74.24
36248;BME280;22287;50.824;5.644;2023-01-26T05:03:47;101580.44;;;1.44;75.44
36248;BME280;22287;50.824;5.644;2023-01-26T05:06:14;101572.09;;;1.28;75.49
36248;BME280;22287;50.824;5.644;2023-01-26T05:08:44;101572.78;;;1.35;75.21
36248;BME280;22287;50.824;5.644;2023-01-26T05:11:11;101583.72;;;1.26;75.55
36248;BME280;22287;50.824;5.644;2023-01-26T05:13:52;101579.28;;;1.26;76.42
36248;BME280;22287;50.824;5.644;2023-01-26T05:16:24;101571.94;;;1.33;75.42
36248;BME280;22287;50.824;5.644;2023-01-26T05:19:01;101576.25;;;1.37;76.46
36248;BME280;22287;50.824;5.644;2023-01-26T05:21:42;101579.53;;;1.45;75.79
36248;BME280;22287;50.824;5.644;2023-01-26T05:24:10;101583.09;;;1.44;75.27
36248;BME280;22287;50.824;5.644;2023-01-26T05:27:00;101585.00;;;1.40;76.26
36248;BME280;22287;50.824;5.644;2023-01-26T05:29:57;101574.41;;;1.39;75.99
36248;BME280;22287;50.824;5.644;2023-01-26T05:32:30;101575.47;;;1.59;75.47
36248;BME280;22287;50.824;5.644;2023-01-26T05:34:57;101576.06;;;1.43;76.20
36248;BME280;22287;50.824;5.644;2023-01-26T05:37:25;101574.59;;;1.59;75.80
36248;BME280;22287;50.824;5.644;2023-01-26T05:39:54;101573.50;;;1.64;75.45
36248;BME280;22287;50.824;5.644;2023-01-26T05:42:22;101582.44;;;1.88;73.73
36248;BME280;22287;50.824;5.644;2023-01-26T05:45:16;101583.97;;;1.95;74.14
36248;BME280;22287;50.824;5.644;2023-01-26T05:47:59;101581.00;;;2.03;73.49
36248;BME280;22287;50.824;5.644;2023-01-26T05:50:40;101587.00;;;1.85;73.84
36248;BME280;22287;50.824;5.644;2023-01-26T05:53:21;101587.50;;;1.71;74.31
36248;BME280;22287;50.824;5.644;2023-01-26T05:55:50;101585.16;;;1.87;73.86
36248;BME280;22287;50.824;5.644;2023-01-26T05:58:20;101582.97;;;1.73;74.93
36248;BME280;22287;50.824;5.644;2023-01-26T06:01:04;101584.88;;;1.94;73.73
36248;BME280;22287;50.824;5.644;2023-01-26T06:03:40;101575.69;;;2.03;73.12
36248;BME280;22287;50.824;5.644;2023-01-26T06:06:07;101577.44;;;2.04;73.83
36248;BME280;22287;50.824;5.644;2023-01-26T06:08:40;101580.84;;;2.07;73.45
36248;BME280;22287;50.824;5.644;2023-01-26T06:11:25;101582.75;;;2.04;73.68
36248;BME280;22287;50.824;5.644;2023-01-26T06:14:14;101585.16;;;2.11;73.37
36248;BME280;22287;50.824;5.644;2023-01-26T06:16:41;101583.38;;;2.10;72.79
36248;BME280;22287;50.824;5.644;2023-01-26T06:19:10;101581.72;;;2.08;73.41
36248;BME280;22287;50.824;5.644;2023-01-26T06:21:38;101593.53;;;2.01;73.28
36248;BME280;22287;50.824;5.644;2023-01-26T06:24:05;101592.97;;;1.91;74.28
36248;BME280;22287;50.824;5.644;2023-01-26T06:26:32;101597.28;;;1.95;74.06
36248;BME280;22287;50.824;5.644;2023-01-26T06:28:59;101596.09;;;1.79;74.19
36248;BME280;22287;50.824;5.644;2023-01-26T06:31:29;101604.31;;;1.73;74.69
36248;BME280;22287;50.824;5.644;2023-01-26T06:33:58;101611.47;;;1.71;75.15
36248;BME280;22287;50.824;5.644;2023-01-26T06:36:26;101601.69;;;1.96;73.88
36248;BME280;22287;50.824;5.644;2023-01-26T06:38:54;101604.19;;;1.76;74.42
36248;BME280;22287;50.824;5.644;2023-01-26T06:41:23;101607.16;;;1.67;74.96
36248;BME280;22287;50.824;5.644;2023-01-26T06:43:50;101602.75;;;1.91;74.35
36248;BME280;22287;50.824;5.644;2023-01-26T06:46:17;101608.97;;;1.66;74.60
36248;BME280;22287;50.824;5.644;2023-01-26T06:48:45;101609.19;;;1.85;74.59
36248;BME280;22287;50.824;5.644;2023-01-26T06:53:56;101607.97;;;1.69;75.32
36248;BME280;22287;50.824;5.644;2023-01-26T06:56:40;101608.31;;;1.60;75.76
36248;BME280;22287;50.824;5.644;2023-01-26T06:59:26;101612.47;;;1.68;75.25
36248;BME280;22287;50.824;5.644;2023-01-26T07:02:18;101613.53;;;1.63;76.17
36248;BME280;22287;50.824;5.644;2023-01-26T07:04:46;101605.59;;;1.61;76.28
36248;BME280;22287;50.824;5.644;2023-01-26T07:07:13;101600.69;;;1.74;74.96
36248;BME280;22287;50.824;5.644;2023-01-26T07:09:40;101612.22;;;1.74;74.87
36248;BME280;22287;50.824;5.644;2023-01-26T07:12:07;101613.84;;;1.54;76.39
36248;BME280;22287;50.824;5.644;2023-01-26T07:14:35;101620.91;;;1.55;76.55
36248;BME280;22287;50.824;5.644;2023-01-26T07:17:02;101621.25;;;1.70;76.30
36248;BME280;22287;50.824;5.644;2023-01-26T07:19:29;101615.63;;;1.53;76.15
36248;BME280;22287;50.824;5.644;2023-01-26T07:21:59;101617.72;;;1.44;76.93
36248;BME280;22287;50.824;5.644;2023-01-26T07:24:27;101619.47;;;1.45;76.73
36248;BME280;22287;50.824;5.644;2023-01-26T07:26:55;101612.22;;;1.74;76.51
36248;BME280;22287;50.824;5.644;2023-01-26T07:29:22;101609.06;;;1.63;75.68
36248;BME280;22287;50.824;5.644;2023-01-26T07:31:51;101603.88;;;2.10;74.60
36248;BME280;22287;50.824;5.644;2023-01-26T07:34:32;101608.63;;;2.25;73.79
36248;BME280;22287;50.824;5.644;2023-01-26T07:37:13;101610.13;;;2.32;73.49
36248;BME280;22287;50.824;5.644;2023-01-26T07:39:40;101606.66;;;2.07;73.26
36248;BME280;22287;50.824;5.644;2023-01-26T07:42:09;101616.81;;;2.20;73.49
36248;BME280;22287;50.824;5.644;2023-01-26T07:44:45;101610.22;;;2.30;72.87
36248;BME280;22287;50.824;5.644;2023-01-26T07:47:12;101612.75;;;2.33;72.93
36248;BME280;22287;50.824;5.644;2023-01-26T07:49:40;101614.84;;;2.25;73.35
36248;BME280;22287;50.824;5.644;2023-01-26T07:52:07;101620.75;;;2.33;73.14
36248;BME280;22287;50.824;5.644;2023-01-26T07:54:34;101622.13;;;2.45;72.32
36248;BME280;22287;50.824;5.644;2023-01-26T07:57:01;101629.19;;;2.21;73.28
36248;BME280;22287;50.824;5.644;2023-01-26T07:59:28;101622.34;;;2.39;72.44
36248;BME280;22287;50.824;5.644;2023-01-26T08:01:55;101624.94;;;2.41;72.68
36248;BME280;22287;50.824;5.644;2023-01-26T08:04:22;101627.50;;;2.44;72.38
36248;BME280;22287;50.824;5.644;2023-01-26T08:06:52;101635.72;;;2.37;72.62
36248;BME280;22287;50.824;5.644;2023-01-26T08:09:18;101639.31;;;2.36;73.28
36248;BME280;22287;50.824;5.644;2023-01-26T08:11:45;101638.16;;;2.44;72.85
36248;BME280;22287;50.824;5.644;2023-01-26T08:14:12;101642.19;;;2.55;72.14
36248;BME280;22287;50.824;5.644;2023-01-26T08:16:53;101647.00;;;2.46;72.77
36248;BME280;22287;50.824;5.644;2023-01-26T08:19:20;101641.47;;;2.50;72.54
36248;BME280;22287;50.824;5.644;2023-01-26T08:21:46;101654.63;;;2.31;72.74
36248;BME280;22287;50.824;5.644;2023-01-26T08:24:13;101655.47;;;2.57;71.69
36248;BME280;22287;50.824;5.644;2023-01-26T08:26:40;101653.06;;;1.75;74.89
36248;BME280;22287;50.824;5.644;2023-01-26T08:29:07;101653.44;;;2.40;72.95
36248;BME280;22287;50.824;5.644;2023-01-26T08:31:37;101653.84;;;2.53;72.07
36248;BME280;22287;50.824;5.644;2023-01-26T08:34:04;101652.81;;;2.32;73.00
36248;BME280;22287;50.824;5.644;2023-01-26T08:36:30;101651.19;;;2.28;72.62
36248;BME280;22287;50.824;5.644;2023-01-26T08:38:57;101656.22;;;2.12;74.04
36248;BME280;22287;50.824;5.644;2023-01-26T08:41:24;101650.69;;;2.42;73.44
36248;BME280;22287;50.824;5.644;2023-01-26T08:43:51;101657.00;;;2.39;72.99
36248;BME280;22287;50.824;5.644;2023-01-26T08:46:18;101663.44;;;2.81;71.83
36248;BME280;22287;50.824;5.644;2023-01-26T08:48:45;101661.50;;;2.62;72.44
36248;BME280;22287;50.824;5.644;2023-01-26T08:51:12;101658.16;;;2.07;72.73
36248;BME280;22287;50.824;5.644;2023-01-26T08:53:57;101651.34;;;2.48;72.80
36248;BME280;22287;50.824;5.644;2023-01-26T08:56:24;101654.06;;;2.47;72.91
36248;BME280;22287;50.824;5.644;2023-01-26T08:58:51;101660.84;;;2.55;72.65
36248;BME280;22287;50.824;5.644;2023-01-26T09:01:17;101664.63;;;2.50;73.15
36248;BME280;22287;50.824;5.644;2023-01-26T09:03:47;101671.00;;;2.46;73.16
36248;BME280;22287;50.824;5.644;2023-01-26T09:06:14;101673.72;;;2.44;73.27
36248;BME280;22287;50.824;5.644;2023-01-26T09:08:41;101672.53;;;2.28;73.29
36248;BME280;22287;50.824;5.644;2023-01-26T09:11:08;101680.03;;;2.42;73.23
36248;BME280;22287;50.824;5.644;2023-01-26T09:13:35;101680.13;;;1.89;74.62
36248;BME280;22287;50.824;5.644;2023-01-26T09:16:12;101686.56;;;2.58;73.63
36248;BME280;22287;50.824;5.644;2023-01-26T09:18:41;101684.56;;;2.63;73.08
36248;BME280;22287;50.824;5.644;2023-01-26T09:21:08;101688.09;;;2.65;73.19
36248;BME280;22287;50.824;5.644;2023-01-26T09:23:35;101694.97;;;2.22;74.52
36248;BME280;22287;50.824;5.644;2023-01-26T09:26:02;101689.69;;;2.46;74.08
36248;BME280;22287;50.824;5.644;2023-01-26T09:28:31;101689.41;;;2.53;73.78
36248;BME280;22287;50.824;5.644;2023-01-26T09:31:06;101683.44;;;2.70;72.70
36248;BME280;22287;50.824;5.644;2023-01-26T09:33:34;101678.03;;;2.48;73.45
36248;BME280;22287;50.824;5.644;2023-01-26T09:36:08;101676.56;;;2.63;73.42
36248;BME280;22287;50.824;5.644;2023-01-26T09:38:36;101684.69;;;2.60;73.29
36248;BME280;22287;50.824;5.644;2023-01-26T09:46:11;101690.16;;;2.57;73.62
36248;BME280;22287;50.824;5.644;2023-01-26T09:54:10;101697.13;;;2.11;75.23
36248;BME280;22287;50.824;5.644;2023-01-26T09:56:38;101696.84;;;2.44;74.45
36248;BME280;22287;50.824;5.644;2023-01-26T10:04:36;101700.88;;;2.55;74.08
36248;BME280;22287;50.824;5.644;2023-01-26T10:07:11;101692.72;;;2.83;73.21
36248;BME280;22287;50.824;5.644;2023-01-26T10:09:48;101684.59;;;2.86;73.17
36248;BME280;22287;50.824;5.644;2023-01-26T10:12:32;101688.19;;;2.85;72.86
36248;BME280;22287;50.824;5.644;2023-01-26T10:15:08;101691.22;;;2.76;73.54
36248;BME280;22287;50.824;5.644;2023-01-26T10:17:42;101693.41;;;2.88;72.89
36248;BME280;22287;50.824;5.644;2023-01-26T10:22:44;101690.97;;;3.05;72.48
36248;BME280;22287;50.824;5.644;2023-01-26T10:25:28;101686.09;;;2.70;73.43
36248;BME280;22287;50.824;5.644;2023-01-26T10:27:55;101682.38;;;2.97;73.12
36248;BME280;22287;50.824;5.644;2023-01-26T10:30:23;101686.19;;;2.90;72.86
36248;BME280;22287;50.824;5.644;2023-01-26T10:32:51;101676.19;;;2.96;72.94
36248;BME280;22287;50.824;5.644;2023-01-26T10:35:23;101675.28;;;2.96;73.13
36248;BME280;22287;50.824;5.644;2023-01-26T10:37:51;101678.91;;;2.95;72.92
36248;BME280;22287;50.824;5.644;2023-01-26T10:40:19;101683.25;;;2.51;74.68
36248;BME280;22287;50.824;5.644;2023-01-26T10:42:54;101672.34;;;2.32;75.55
36248;BME280;22287;50.824;5.644;2023-01-26T10:45:31;101670.56;;;2.81;74.53
36248;BME280;22287;50.824;5.644;2023-01-26T10:48:18;101665.44;;;2.98;73.39
36248;BME280;22287;50.824;5.644;2023-01-26T10:50:47;101662.72;;;3.00;73.64
36248;BME280;22287;50.824;5.644;2023-01-26T10:53:21;101663.69;;;2.97;73.42
36248;BME280;22287;50.824;5.644;2023-01-26T10:56:03;101657.88;;;3.09;73.22
36248;BME280;22287;50.824;5.644;2023-01-26T10:58:51;101651.59;;;3.10;73.49
36248;BME280;22287;50.824;5.644;2023-01-26T11:01:19;101657.94;;;3.08;73.01
36248;BME280;22287;50.824;5.644;2023-01-26T11:04:08;101657.13;;;3.06;73.23
36248;BME280;22287;50.824;5.644;2023-01-26T11:06:38;101663.66;;;2.75;74.58
36248;BME280;22287;50.824;5.644;2023-01-26T11:09:19;101660.97;;;2.98;74.33
36248;BME280;22287;50.824;5.644;2023-01-26T11:14:22;101665.03;;;2.85;74.28
36248;BME280;22287;50.824;5.644;2023-01-26T11:16:54;101662.66;;;2.78;75.16
36248;BME280;22287;50.824;5.644;2023-01-26T11:19:50;101664.81;;;2.91;74.13
36248;BME280;22287;50.824;5.644;2023-01-26T11:22:43;101666.59;;;2.91;74.33
36248;BME280;22287;50.824;5.644;2023-01-26T11:25:17;101667.72;;;1.88;78.12
36248;BME280;22287;50.824;5.644;2023-01-26T11:27:59;101670.34;;;2.14;77.17
36248;BME280;22287;50.824;5.644;2023-01-26T11:35:50;101650.59;;;2.91;75.28
36248;BME280;22287;50.824;5.644;2023-01-26T11:51:34;101636.44;;;2.89;76.06
36248;BME280;22287;50.824;5.644;2023-01-26T11:59:40;101650.28;;;2.52;76.33
36248;BME280;22287;50.824;5.644;2023-01-26T12:02:28;101639.16;;;2.64;76.53
36248;BME280;22287;50.824;5.644;2023-01-26T12:05:00;101640.22;;;2.83;76.11
36248;BME280;22287;50.824;5.644;2023-01-26T12:07:35;101632.97;;;3.30;74.74
36248;BME280;22287;50.824;5.644;2023-01-26T12:10:28;101634.56;;;2.91;74.55
36248;BME280;22287;50.824;5.644;2023-01-26T12:13:03;101629.94;;;2.73;76.24
36248;BME280;22287;50.824;5.644;2023-01-26T12:15:37;101624.78;;;3.13;75.21
36248;BME280;22287;50.824;5.644;2023-01-26T12:18:15;101622.72;;;2.98;75.15
36248;BME280;22287;50.824;5.644;2023-01-26T12:20:50;101615.16;;;3.31;74.27
36248;BME280;22287;50.824;5.644;2023-01-26T12:26:06;101620.19;;;2.72;76.16
36248;BME280;22287;50.824;5.644;2023-01-26T12:31:40;101610.38;;;3.17;75.86
36248;BME280;22287;50.824;5.644;2023-01-26T12:34:29;101608.31;;;3.02;76.67
36248;BME280;22287;50.824;5.644;2023-01-26T14:21:20;101586.19;;;2.77;82.21
36248;BME280;22287;50.824;5.644;2023-01-26T14:23:55;101586.06;;;3.45;80.64
36248;BME280;22287;50.824;5.644;2023-01-26T14:26:53;101583.13;;;3.09;80.48
36248;BME280;22287;50.824;5.644;2023-01-26T14:29:24;101591.16;;;3.29;79.92
36248;BME280;22287;50.824;5.644;2023-01-26T14:31:53;101592.75;;;3.55;80.63
36248;BME280;22287;50.824;5.644;2023-01-26T14:34:23;101587.69;;;3.27;81.12
36248;BME280;22287;50.824;5.644;2023-01-26T14:37:13;101589.88;;;3.60;79.22
36248;BME280;22287;50.824;5.644;2023-01-26T14:39:41;101589.34;;;3.51;80.77
36248;BME280;22287;50.824;5.644;2023-01-26T14:42:19;101587.88;;;3.44;79.83
36248;BME280;22287;50.824;5.644;2023-01-26T14:44:46;101590.38;;;3.69;80.59
36248;BME280;22287;50.824;5.644;2023-01-26T14:47:22;101589.69;;;3.22;79.82
36248;BME280;22287;50.824;5.644;2023-01-26T14:52:32;101598.59;;;3.43;78.85
36248;BME280;22287;50.824;5.644;2023-01-26T14:57:32;101602.13;;;4.05;79.22
36248;BME280;22287;50.824;5.644;2023-01-26T15:00:00;101593.16;;;3.66;79.09
36248;BME280;22287;50.824;5.644;2023-01-26T15:02:36;101595.59;;;3.72;79.51
36248;BME280;22287;50.824;5.644;2023-01-26T15:05:14;101597.69;;;3.22;80.95
36248;BME280;22287;50.824;5.644;2023-01-26T15:07:44;101596.84;;;3.64;80.51
36248;BME280;22287;50.824;5.644;2023-01-26T15:15:37;101605.47;;;3.90;79.80
36248;BME280;22287;50.824;5.644;2023-01-26T15:18:17;101607.38;;;3.25;79.54
36248;BME280;22287;50.824;5.644;2023-01-26T15:20:54;101610.38;;;3.81;79.52
36248;BME280;22287;50.824;5.644;2023-01-26T15:23:35;101608.13;;;3.50;80.70
36248;BME280;22287;50.824;5.644;2023-01-26T15:26:13;101606.56;;;3.44;80.62
36248;BME280;22287;50.824;5.644;2023-01-26T15:28:40;101607.94;;;3.75;80.71
36248;BME280;22287;50.824;5.644;2023-01-26T15:31:19;101616.09;;;3.72;81.15
36248;BME280;22287;50.824;5.644;2023-01-26T15:33:52;101610.81;;;3.28;82.39
36248;BME280;22287;50.824;5.644;2023-01-26T15:41:30;101605.31;;;3.73;80.58
36248;BME280;22287;50.824;5.644;2023-01-26T15:43:57;101612.63;;;3.70;80.83
36248;BME280;22287;50.824;5.644;2023-01-26T15:46:25;101609.84;;;4.32;78.31
36248;BME280;22287;50.824;5.644;2023-01-26T15:48:52;101607.06;;;4.53;77.85
36248;BME280;22287;50.824;5.644;2023-01-26T15:51:19;101612.72;;;4.08;78.05
36248;BME280;22287;50.824;5.644;2023-01-26T15:53:46;101604.88;;;4.04;79.13
36248;BME280;22287;50.824;5.644;2023-01-26T15:56:14;101613.31;;;3.95;78.59
36248;BME280;22287;50.824;5.644;2023-01-26T15:58:41;101612.34;;;4.36;78.10
36248;BME280;22287;50.824;5.644;2023-01-26T16:01:13;101600.59;;;4.78;76.56
36248;BME280;22287;50.824;5.644;2023-01-26T16:03:41;101607.00;;;4.73;76.97
36248;BME280;22287;50.824;5.644;2023-01-26T16:06:16;101602.72;;;4.69;76.67
36248;BME280;22287;50.824;5.644;2023-01-26T16:08:44;101604.88;;;4.04;78.88
36248;BME280;22287;50.824;5.644;2023-01-26T16:11:12;101613.53;;;4.29;78.53
36248;BME280;22287;50.824;5.644;2023-01-26T16:13:39;101611.25;;;4.40;77.97
36248;BME280;22287;50.824;5.644;2023-01-26T16:16:15;101617.34;;;4.44;77.27
36248;BME280;22287;50.824;5.644;2023-01-26T16:18:43;101605.88;;;4.01;78.28
36248;BME280;22287;50.824;5.644;2023-01-26T16:21:21;101601.91;;;4.30;78.31
36248;BME280;22287;50.824;5.644;2023-01-26T16:23:49;101617.84;;;4.13;78.01
36248;BME280;22287;50.824;5.644;2023-01-26T16:26:18;101609.69;;;3.96;78.78
36248;BME280;22287;50.824;5.644;2023-01-26T16:28:45;101606.41;;;4.48;77.54